sensor_id;sensor_type;location;lat;lon;timestamp;temperature;humidity
67890;DHT22;54685;52.082;5.426;2023-04-06T00:01:08;4.60;99.90
67890;DHT22;54685;52.082;5.426;2023-04-06T00:03:35;4.60;99.90
67890;DHT22;54685;52.082;5.426;2023-04-06T00:06:02;4.60;99.90
67890;DHT22;54685;52.082;5.426;2023-04-06T00:08:29;4.50;99.90
67890;DHT22;54685;52.082;5.426;2023-04-06T00:10:57;4.50;99.90
67890;DHT22;54685;52.082;5.426;2023-04-06T00:13:24;4.50;99.90
67890;DHT22;54685;52.082;5.426;2023-04-06T00:15:50;4.40;99.90
67890;DHT22;54685;52.082;5.426;2023-04-06T00:18:19;4.40;99.90
67890;DHT22;54685;52.082;5.426;2023-04-06T00:20:47;4.40;99.90
67890;DHT22;54685;52.082;5.426;2023-04-06T00:23:14;4.30;99.90
67890;DHT22;54685;52.082;5.426;2023-04-06T00:25:41;4.30;99.90
67890;DHT22;54685;52.082;5.426;2023-04-06T00:28:08;4.30;99.90
67890;DHT22;54685;52.082;5.426;2023-04-06T00:30:34;4.20;99.90
67890;DHT22;54685;52.082;5.426;2023-04-06T00:33:01;4.20;99.90
67890;DHT22;54685;52.082;5.426;2023-04-06T00:35:28;4.20;99.90
67890;DHT22;54685;52.082;5.426;2023-04-06T00:37:55;4.20;99.90
67890;DHT22;54685;52.082;5.426;2023-04-06T00:40:22;4.20;99.90
67890;DHT22;54685;52.082;5.426;2023-04-06T00:42:49;4.10;99.90
67890;DHT22;54685;52.082;5.426;2023-04-06T00:45:16;4.10;99.90
67890;DHT22;54685;52.082;5.426;2023-04-06T00:47:43;4.10;99.90
67890;DHT22;54685;52.082;5.426;2023-04-06T00:50:10;4.00;99.90
67890;DHT22;54685;52.082;5.426;2023-04-06T00:52:37;4.10;99.90
67890;DHT22;54685;52.082;5.426;2023-04-06T00:55:09;4.10;99.90
67890;DHT22;54685;52.082;5.426;2023-04-06T00:57:40;4.10;99.90
67890;DHT22;54685;52.082;5.426;2023-04-06T01:00:11;4.10;99.90
67890;DHT22;54685;52.082;5.426;2023-04-06T01:02:39;4.00;99.90
67890;DHT22;54685;52.082;5.426;2023-04-06T01:05:08;4.00;99.90
67890;DHT22;54685;52.082;5.426;2023-04-06T01:07:54;4.00;99.90
67890;DHT22;54685;52.082;5.426;2023-04-06T01:10:25;4.00;99.90
67890;DHT22;54685;52.082;5.426;2023-04-06T01:13:00;4.00;99.90
67890;DHT22;54685;52.082;5.426;2023-04-06T01:15:51;4.00;99.90
67890;DHT22;54685;52.082;5.426;2023-04-06T01:18:29;4.00;99.90
67890;DHT22;54685;52.082;5.426;2023-04-06T01:21:23;4.10;99.90
67890;DHT22;54685;52.082;5.426;2023-04-06T01:24:13;4.00;99.90
67890;DHT22;54685;52.082;5.426;2023-04-06T01:26:59;4.10;99.90
67890;DHT22;54685;52.082;5.426;2023-04-06T01:29:35;4.10;99.90
67890;DHT22;54685;52.082;5.426;2023-04-06T01:32:05;4.10;99.90
67890;DHT22;54685;52.082;5.426;2023-04-06T01:34:37;4.10;99.90
67890;DHT22;54685;52.082;5.426;2023-04-06T01:37:05;4.10;99.90
67890;DHT22;54685;52.082;5.426;2023-04-06T01:39:32;4.20;99.90
67890;DHT22;54685;52.082;5.426;2023-04-06T01:42:02;4.20;99.90
67890;DHT22;54685;52.082;5.426;2023-04-06T01:44:31;4.20;99.90
67890;DHT22;54685;52.082;5.426;2023-04-06T01:47:06;4.20;99.90
67890;DHT22;54685;52.082;5.426;2023-04-06T01:49:34;4.30;99.90
67890;DHT22;54685;52.082;5.426;2023-04-06T01:52:01;4.30;99.90
67890;DHT22;54685;52.082;5.426;2023-04-06T01:54:29;4.30;99.90
67890;DHT22;54685;52.082;5.426;2023-04-06T01:57:19;4.30;99.90
67890;DHT22;54685;52.082;5.426;2023-04-06T01:59:52;4.40;99.90
67890;DHT22;54685;52.082;5.426;2023-04-06T02:02:38;4.40;99.90
67890;DHT22;54685;52.082;5.426;2023-04-06T02:05:10;4.40;99.90
67890;DHT22;54685;52.082;5.426;2023-04-06T02:07:40;4.40;99.90
67890;DHT22;54685;52.082;5.426;2023-04-06T02:10:14;4.40;99.90
67890;DHT22;54685;52.082;5.426;2023-04-06T02:12:42;4.50;99.90
67890;DHT22;54685;52.082;5.426;2023-04-06T02:15:13;4.50;99.90
67890;DHT22;54685;52.082;5.426;2023-04-06T02:17:53;4.50;99.90
67890;DHT22;54685;52.082;5.426;2023-04-06T02:20:20;4.60;99.90
67890;DHT22;54685;52.082;5.426;2023-04-06T02:22:49;4.60;99.90
67890;DHT22;54685;52.082;5.426;2023-04-06T02:25:16;4.60;99.90
67890;DHT22;54685;52.082;5.426;2023-04-06T02:27:43;4.70;99.90
67890;DHT22;54685;52.082;5.426;2023-04-06T02:30:10;4.70;99.90
67890;DHT22;54685;52.082;5.426;2023-04-06T02:32:37;4.70;99.90
67890;DHT22;54685;52.082;5.426;2023-04-06T02:35:05;4.80;99.90
67890;DHT22;54685;52.082;5.426;2023-04-06T02:37:33;4.80;99.90
67890;DHT22;54685;52.082;5.426;2023-04-06T02:40:00;4.80;99.90
67890;DHT22;54685;52.082;5.426;2023-04-06T02:42:29;4.80;99.90
67890;DHT22;54685;52.082;5.426;2023-04-06T02:44:57;4.80;99.90
67890;DHT22;54685;52.082;5.426;2023-04-06T02:47:28;4.70;99.90
67890;DHT22;54685;52.082;5.426;2023-04-06T02:49:55;4.80;99.90
67890;DHT22;54685;52.082;5.426;2023-04-06T02:52:22;4.80;99.90
67890;DHT22;54685;52.082;5.426;2023-04-06T02:54:49;4.80;99.90
67890;DHT22;54685;52.082;5.426;2023-04-06T02:57:23;4.80;99.90
67890;DHT22;54685;52.082;5.426;2023-04-06T02:59:50;4.80;99.90
67890;DHT22;54685;52.082;5.426;2023-04-06T03:02:22;4.80;99.90
67890;DHT22;54685;52.082;5.426;2023-04-06T03:04:49;4.90;99.90
67890;DHT22;54685;52.082;5.426;2023-04-06T03:07:23;4.90;99.90
67890;DHT22;54685;52.082;5.426;2023-04-06T03:09:49;4.90;99.90
67890;DHT22;54685;52.082;5.426;2023-04-06T03:12:17;5.00;99.90
67890;DHT22;54685;52.082;5.426;2023-04-06T03:15:13;5.00;99.90
67890;DHT22;54685;52.082;5.426;2023-04-06T03:17:46;5.00;99.90
67890;DHT22;54685;52.082;5.426;2023-04-06T03:20:30;5.00;99.90
67890;DHT22;54685;52.082;5.426;2023-04-06T03:22:58;5.00;99.90
67890;DHT22;54685;52.082;5.426;2023-04-06T03:25:28;5.00;99.90
67890;DHT22;54685;52.082;5.426;2023-04-06T03:28:00;5.10;98.90
67890;DHT22;54685;52.082;5.426;2023-04-06T03:30:28;5.10;97.30
67890;DHT22;54685;52.082;5.426;2023-04-06T03:32:55;5.10;99.90
67890;DHT22;54685;52.082;5.426;2023-04-06T03:35:25;5.10;99.90
67890;DHT22;54685;52.082;5.426;2023-04-06T03:37:52;5.20;98.00
67890;DHT22;54685;52.082;5.426;2023-04-06T03:40:19;5.20;97.90
67890;DHT22;54685;52.082;5.426;2023-04-06T03:42:46;5.20;97.50
67890;DHT22;54685;52.082;5.426;2023-04-06T03:45:15;5.20;98.40
67890;DHT22;54685;52.082;5.426;2023-04-06T03:47:47;5.20;98.70
67890;DHT22;54685;52.082;5.426;2023-04-06T03:50:17;5.30;99.80
67890;DHT22;54685;52.082;5.426;2023-04-06T03:52:44;5.30;99.50
67890;DHT22;54685;52.082;5.426;2023-04-06T03:55:11;5.30;98.50
67890;DHT22;54685;52.082;5.426;2023-04-06T03:57:38;5.30;99.90
67890;DHT22;54685;52.082;5.426;2023-04-06T04:00:05;5.30;99.50
67890;DHT22;54685;52.082;5.426;2023-04-06T04:02:38;5.30;98.60
67890;DHT22;54685;52.082;5.426;2023-04-06T04:05:05;5.30;97.70
67890;DHT22;54685;52.082;5.426;2023-04-06T04:07:32;5.30;99.20
67890;DHT22;54685;52.082;5.426;2023-04-06T04:10:00;5.30;99.30
67890;DHT22;54685;52.082;5.426;2023-04-06T04:12:28;5.30;99.90
67890;DHT22;54685;52.082;5.426;2023-04-06T04:14:56;5.30;99.70
67890;DHT22;54685;52.082;5.426;2023-04-06T04:17:24;5.30;99.10
67890;DHT22;54685;52.082;5.426;2023-04-06T04:19:51;5.30;99.00
67890;DHT22;54685;52.082;5.426;2023-04-06T04:22:17;5.30;98.20
67890;DHT22;54685;52.082;5.426;2023-04-06T04:24:45;5.20;99.00
67890;DHT22;54685;52.082;5.426;2023-04-06T04:27:14;5.20;97.80
67890;DHT22;54685;52.082;5.426;2023-04-06T04:29:41;5.10;99.70
67890;DHT22;54685;52.082;5.426;2023-04-06T04:32:11;5.10;99.90
67890;DHT22;54685;52.082;5.426;2023-04-06T04:34:38;5.10;99.90
67890;DHT22;54685;52.082;5.426;2023-04-06T04:37:16;5.10;99.90
67890;DHT22;54685;52.082;5.426;2023-04-06T04:39:48;5.00;99.90
67890;DHT22;54685;52.082;5.426;2023-04-06T04:42:15;5.00;99.40
67890;DHT22;54685;52.082;5.426;2023-04-06T04:44:47;5.00;98.70
67890;DHT22;54685;52.082;5.426;2023-04-06T04:47:18;4.90;99.90
67890;DHT22;54685;52.082;5.426;2023-04-06T04:49:47;5.00;99.40
67890;DHT22;54685;52.082;5.426;2023-04-06T04:52:19;5.00;99.10
67890;DHT22;54685;52.082;5.426;2023-04-06T04:54:59;5.00;98.40
67890;DHT22;54685;52.082;5.426;2023-04-06T04:57:27;5.00;98.60
67890;DHT22;54685;52.082;5.426;2023-04-06T04:59:54;5.00;99.90
67890;DHT22;54685;52.082;5.426;2023-04-06T05:02:23;5.00;99.90
67890;DHT22;54685;52.082;5.426;2023-04-06T05:04:59;5.00;99.90
67890;DHT22;54685;52.082;5.426;2023-04-06T05:07:28;5.10;99.90
67890;DHT22;54685;52.082;5.426;2023-04-06T05:09:57;5.10;99.90
67890;DHT22;54685;52.082;5.426;2023-04-06T05:12:26;5.10;99.70
67890;DHT22;54685;52.082;5.426;2023-04-06T05:15:05;5.10;99.50
67890;DHT22;54685;52.082;5.426;2023-04-06T05:17:33;5.10;99.80
67890;DHT22;54685;52.082;5.426;2023-04-06T05:20:00;5.10;99.70
67890;DHT22;54685;52.082;5.426;2023-04-06T05:22:30;5.10;99.90
67890;DHT22;54685;52.082;5.426;2023-04-06T05:25:05;5.20;99.90
67890;DHT22;54685;52.082;5.426;2023-04-06T05:27:32;5.20;99.90
67890;DHT22;54685;52.082;5.426;2023-04-06T05:30:04;5.20;99.80
67890;DHT22;54685;52.082;5.426;2023-04-06T05:32:37;5.30;99.90
67890;DHT22;54685;52.082;5.426;2023-04-06T05:35:04;5.30;99.90
67890;DHT22;54685;52.082;5.426;2023-04-06T05:37:33;5.30;99.90
67890;DHT22;54685;52.082;5.426;2023-04-06T05:40:00;5.40;99.90
67890;DHT22;54685;52.082;5.426;2023-04-06T05:42:27;5.40;99.90
67890;DHT22;54685;52.082;5.426;2023-04-06T05:44:57;5.40;99.90
67890;DHT22;54685;52.082;5.426;2023-04-06T05:47:31;5.40;99.90
67890;DHT22;54685;52.082;5.426;2023-04-06T05:50:16;5.40;99.90
67890;DHT22;54685;52.082;5.426;2023-04-06T05:52:43;5.50;99.90
67890;DHT22;54685;52.082;5.426;2023-04-06T05:55:21;5.50;99.90
67890;DHT22;54685;52.082;5.426;2023-04-06T05:57:55;5.50;99.90
67890;DHT22;54685;52.082;5.426;2023-04-06T06:00:23;5.50;99.90
67890;DHT22;54685;52.082;5.426;2023-04-06T06:02:59;5.50;99.90
67890;DHT22;54685;52.082;5.426;2023-04-06T06:05:28;5.50;99.90
67890;DHT22;54685;52.082;5.426;2023-04-06T06:08:00;5.50;99.90
67890;DHT22;54685;52.082;5.426;2023-04-06T06:10:29;5.50;99.90
67890;DHT22;54685;52.082;5.426;2023-04-06T06:12:57;5.60;99.90
67890;DHT22;54685;52.082;5.426;2023-04-06T06:15:28;5.60;99.90
67890;DHT22;54685;52.082;5.426;2023-04-06T06:17:55;5.60;99.90
67890;DHT22;54685;52.082;5.426;2023-04-06T06:20:24;5.60;99.90
67890;DHT22;54685;52.082;5.426;2023-04-06T06:22:51;5.60;99.90
67890;DHT22;54685;52.082;5.426;2023-04-06T06:25:20;5.60;99.90
67890;DHT22;54685;52.082;5.426;2023-04-06T06:28:15;5.70;99.90
67890;DHT22;54685;52.082;5.426;2023-04-06T06:30:42;5.70;99.90
67890;DHT22;54685;52.082;5.426;2023-04-06T06:33:08;5.70;99.90
67890;DHT22;54685;52.082;5.426;2023-04-06T06:35:38;5.80;99.90
67890;DHT22;54685;52.082;5.426;2023-04-06T06:38:05;5.90;99.90
67890;DHT22;54685;52.082;5.426;2023-04-06T06:40:33;6.00;99.90
67890;DHT22;54685;52.082;5.426;2023-04-06T06:43:00;6.00;99.90
67890;DHT22;54685;52.082;5.426;2023-04-06T06:45:33;6.10;99.90
67890;DHT22;54685;52.082;5.426;2023-04-06T06:48:02;6.20;99.90
67890;DHT22;54685;52.082;5.426;2023-04-06T06:50:33;6.30;99.90
67890;DHT22;54685;52.082;5.426;2023-04-06T06:53:03;6.50;99.90
67890;DHT22;54685;52.082;5.426;2023-04-06T06:56:03;6.50;99.20
67890;DHT22;54685;52.082;5.426;2023-04-06T06:58:30;6.70;99.10
67890;DHT22;54685;52.082;5.426;2023-04-06T07:00:59;6.70;96.50
67890;DHT22;54685;52.082;5.426;2023-04-06T07:03:33;6.70;97.10
67890;DHT22;54685;52.082;5.426;2023-04-06T07:06:01;6.80;97.70
67890;DHT22;54685;52.082;5.426;2023-04-06T07:08:28;6.80;97.70
67890;DHT22;54685;52.082;5.426;2023-04-06T07:10:54;6.80;97.80
67890;DHT22;54685;52.082;5.426;2023-04-06T07:13:24;6.80;96.90
67890;DHT22;54685;52.082;5.426;2023-04-06T07:15:55;6.80;95.80
67890;DHT22;54685;52.082;5.426;2023-04-06T07:18:22;6.80;97.20
67890;DHT22;54685;52.082;5.426;2023-04-06T07:20:51;6.80;96.20
67890;DHT22;54685;52.082;5.426;2023-04-06T07:23:18;6.80;96.10
67890;DHT22;54685;52.082;5.426;2023-04-06T07:25:45;6.80;95.90
67890;DHT22;54685;52.082;5.426;2023-04-06T07:28:12;6.80;97.20
67890;DHT22;54685;52.082;5.426;2023-04-06T07:30:39;6.80;97.80
67890;DHT22;54685;52.082;5.426;2023-04-06T07:33:08;6.80;97.50
67890;DHT22;54685;52.082;5.426;2023-04-06T07:35:35;6.90;96.60
67890;DHT22;54685;52.082;5.426;2023-04-06T07:38:04;6.90;97.80
67890;DHT22;54685;52.082;5.426;2023-04-06T07:40:32;6.90;97.80
67890;DHT22;54685;52.082;5.426;2023-04-06T07:42:59;6.90;98.70
67890;DHT22;54685;52.082;5.426;2023-04-06T07:45:26;6.90;98.50
67890;DHT22;54685;52.082;5.426;2023-04-06T07:47:54;6.90;97.50
67890;DHT22;54685;52.082;5.426;2023-04-06T07:50:23;7.00;98.20
67890;DHT22;54685;52.082;5.426;2023-04-06T07:52:51;7.00;98.00
67890;DHT22;54685;52.082;5.426;2023-04-06T07:55:18;7.00;95.50
67890;DHT22;54685;52.082;5.426;2023-04-06T07:57:46;7.10;97.90
67890;DHT22;54685;52.082;5.426;2023-04-06T08:00:13;7.10;98.30
67890;DHT22;54685;52.082;5.426;2023-04-06T08:02:40;7.20;98.00
67890;DHT22;54685;52.082;5.426;2023-04-06T08:05:07;7.20;97.40
67890;DHT22;54685;52.082;5.426;2023-04-06T08:07:34;7.30;97.70
67890;DHT22;54685;52.082;5.426;2023-04-06T08:10:06;7.30;96.30
67890;DHT22;54685;52.082;5.426;2023-04-06T08:12:34;7.30;96.50
67890;DHT22;54685;52.082;5.426;2023-04-06T08:15:01;7.30;96.80
67890;DHT22;54685;52.082;5.426;2023-04-06T08:17:29;7.40;96.50
67890;DHT22;54685;52.082;5.426;2023-04-06T08:19:58;7.40;96.10
67890;DHT22;54685;52.082;5.426;2023-04-06T08:25:13;7.50;95.30
67890;DHT22;54685;52.082;5.426;2023-04-06T08:27:40;7.60;96.30
67890;DHT22;54685;52.082;5.426;2023-04-06T08:30:07;7.70;96.80
67890;DHT22;54685;52.082;5.426;2023-04-06T08:32:34;7.80;95.90
67890;DHT22;54685;52.082;5.426;2023-04-06T08:51:31;8.40;94.10
67890;DHT22;54685;52.082;5.426;2023-04-06T08:54:07;8.50;94.70
67890;DHT22;54685;52.082;5.426;2023-04-06T08:57:13;8.50;93.20
67890;DHT22;54685;52.082;5.426;2023-04-06T08:59:40;8.50;94.40
67890;DHT22;54685;52.082;5.426;2023-04-06T09:02:15;8.60;94.80
67890;DHT22;54685;52.082;5.426;2023-04-06T09:04:46;8.60;94.00
67890;DHT22;54685;52.082;5.426;2023-04-06T09:07:15;8.70;95.30
67890;DHT22;54685;52.082;5.426;2023-04-06T09:09:42;8.70;95.20
67890;DHT22;54685;52.082;5.426;2023-04-06T09:12:27;8.80;95.50
67890;DHT22;54685;52.082;5.426;2023-04-06T09:14:55;9.00;94.20
67890;DHT22;54685;52.082;5.426;2023-04-06T09:17:25;9.00;94.10
67890;DHT22;54685;52.082;5.426;2023-04-06T09:19:52;9.00;93.10
67890;DHT22;54685;52.082;5.426;2023-04-06T09:22:20;9.10;93.40
67890;DHT22;54685;52.082;5.426;2023-04-06T09:24:49;9.10;93.30
67890;DHT22;54685;52.082;5.426;2023-04-06T09:27:16;9.10;93.60
67890;DHT22;54685;52.082;5.426;2023-04-06T09:29:44;9.10;92.40
67890;DHT22;54685;52.082;5.426;2023-04-06T09:32:11;9.20;92.40
67890;DHT22;54685;52.082;5.426;2023-04-06T09:34:38;9.10;92.30
67890;DHT22;54685;52.082;5.426;2023-04-06T09:37:15;9.10;92.70
67890;DHT22;54685;52.082;5.426;2023-04-06T09:39:42;9.10;92.60
67890;DHT22;54685;52.082;5.426;2023-04-06T09:42:09;9.10;93.40
67890;DHT22;54685;52.082;5.426;2023-04-06T09:44:36;9.10;93.60
67890;DHT22;54685;52.082;5.426;2023-04-06T09:47:06;9.20;93.90
67890;DHT22;54685;52.082;5.426;2023-04-06T09:49:34;9.20;94.60
67890;DHT22;54685;52.082;5.426;2023-04-06T09:52:03;9.30;94.50
67890;DHT22;54685;52.082;5.426;2023-04-06T09:54:32;9.30;95.20
67890;DHT22;54685;52.082;5.426;2023-04-06T09:57:18;9.40;95.30
67890;DHT22;54685;52.082;5.426;2023-04-06T10:00:04;9.40;97.40
67890;DHT22;54685;52.082;5.426;2023-04-06T10:07:59;9.60;99.90
67890;DHT22;54685;52.082;5.426;2023-04-06T10:10:28;9.60;99.90
67890;DHT22;54685;52.082;5.426;2023-04-06T10:12:55;9.60;99.90
67890;DHT22;54685;52.082;5.426;2023-04-06T10:15:23;9.60;99.90
67890;DHT22;54685;52.082;5.426;2023-04-06T10:17:51;9.70;99.90
67890;DHT22;54685;52.082;5.426;2023-04-06T10:20:30;9.60;99.90
67890;DHT22;54685;52.082;5.426;2023-04-06T10:22:59;9.70;99.90
67890;DHT22;54685;52.082;5.426;2023-04-06T10:25:33;9.70;99.90
67890;DHT22;54685;52.082;5.426;2023-04-06T10:30:28;9.80;99.90
67890;DHT22;54685;52.082;5.426;2023-04-06T10:32:54;9.70;99.90
67890;DHT22;54685;52.082;5.426;2023-04-06T10:35:21;9.70;99.90
67890;DHT22;54685;52.082;5.426;2023-04-06T10:38:00;9.60;99.90
67890;DHT22;54685;52.082;5.426;2023-04-06T10:40:28;9.60;99.90
67890;DHT22;54685;52.082;5.426;2023-04-06T10:42:55;9.50;99.90
67890;DHT22;54685;52.082;5.426;2023-04-06T10:45:25;9.50;99.90
67890;DHT22;54685;52.082;5.426;2023-04-06T10:47:53;9.40;99.90
67890;DHT22;54685;52.082;5.426;2023-04-06T10:50:21;9.30;99.90
67890;DHT22;54685;52.082;5.426;2023-04-06T10:52:59;9.20;99.90
67890;DHT22;54685;52.082;5.426;2023-04-06T10:55:27;9.10;99.90
67890;DHT22;54685;52.082;5.426;2023-04-06T10:57:54;9.00;99.90
67890;DHT22;54685;52.082;5.426;2023-04-06T11:00:21;9.00;99.90
67890;DHT22;54685;52.082;5.426;2023-04-06T11:02:48;8.90;99.90
67890;DHT22;54685;52.082;5.426;2023-04-06T11:05:15;8.80;99.90
67890;DHT22;54685;52.082;5.426;2023-04-06T11:07:44;8.80;99.90
67890;DHT22;54685;52.082;5.426;2023-04-06T11:10:11;8.70;99.90
67890;DHT22;54685;52.082;5.426;2023-04-06T11:12:54;8.70;99.90
67890;DHT22;54685;52.082;5.426;2023-04-06T11:15:21;8.70;99.90
67890;DHT22;54685;52.082;5.426;2023-04-06T11:17:49;8.60;99.90
67890;DHT22;54685;52.082;5.426;2023-04-06T11:20:16;8.60;99.90
67890;DHT22;54685;52.082;5.426;2023-04-06T11:22:51;8.60;99.90
67890;DHT22;54685;52.082;5.426;2023-04-06T11:25:18;8.50;99.90
67890;DHT22;54685;52.082;5.426;2023-04-06T11:27:46;8.60;99.90
67890;DHT22;54685;52.082;5.426;2023-04-06T11:30:17;8.50;99.90
67890;DHT22;54685;52.082;5.426;2023-04-06T11:32:45;8.50;99.90
67890;DHT22;54685;52.082;5.426;2023-04-06T11:35:23;8.50;99.90
67890;DHT22;54685;52.082;5.426;2023-04-06T11:37:50;8.50;99.90
67890;DHT22;54685;52.082;5.426;2023-04-06T11:40:21;8.50;99.90
67890;DHT22;54685;52.082;5.426;2023-04-06T11:42:53;8.60;99.90
67890;DHT22;54685;52.082;5.426;2023-04-06T11:45:20;8.60;99.90
67890;DHT22;54685;52.082;5.426;2023-04-06T11:47:56;8.50;99.90
67890;DHT22;54685;52.082;5.426;2023-04-06T11:50:24;8.60;99.90
67890;DHT22;54685;52.082;5.426;2023-04-06T11:53:01;8.50;99.90
67890;DHT22;54685;52.082;5.426;2023-04-06T11:55:29;8.60;99.90
67890;DHT22;54685;52.082;5.426;2023-04-06T11:57:59;8.60;99.90
67890;DHT22;54685;52.082;5.426;2023-04-06T12:00:26;8.70;99.90
67890;DHT22;54685;52.082;5.426;2023-04-06T12:02:53;8.60;99.90
67890;DHT22;54685;52.082;5.426;2023-04-06T12:05:19;8.60;99.90
67890;DHT22;54685;52.082;5.426;2023-04-06T12:07:46;8.70;99.90
67890;DHT22;54685;52.082;5.426;2023-04-06T12:10:16;8.70;99.90
67890;DHT22;54685;52.082;5.426;2023-04-06T12:12:42;8.70;99.90
67890;DHT22;54685;52.082;5.426;2023-04-06T12:15:10;8.70;99.90
67890;DHT22;54685;52.082;5.426;2023-04-06T12:17:39;8.70;99.90
67890;DHT22;54685;52.082;5.426;2023-04-06T12:20:06;8.70;99.90
67890;DHT22;54685;52.082;5.426;2023-04-06T12:22:50;8.60;99.90
67890;DHT22;54685;52.082;5.426;2023-04-06T12:25:17;8.70;99.90
67890;DHT22;54685;52.082;5.426;2023-04-06T12:27:47;8.70;99.90
67890;DHT22;54685;52.082;5.426;2023-04-06T12:30:14;8.70;99.90
67890;DHT22;54685;52.082;5.426;2023-04-06T12:32:41;8.70;99.90
67890;DHT22;54685;52.082;5.426;2023-04-06T12:35:08;8.70;99.90
67890;DHT22;54685;52.082;5.426;2023-04-06T12:37:36;8.60;99.90
67890;DHT22;54685;52.082;5.426;2023-04-06T12:40:03;8.60;99.90
67890;DHT22;54685;52.082;5.426;2023-04-06T12:42:30;8.70;99.90
67890;DHT22;54685;52.082;5.426;2023-04-06T12:44:57;8.70;99.90
67890;DHT22;54685;52.082;5.426;2023-04-06T12:47:25;8.60;99.90
67890;DHT22;54685;52.082;5.426;2023-04-06T12:49:53;8.60;99.90
67890;DHT22;54685;52.082;5.426;2023-04-06T12:52:21;8.70;99.90
67890;DHT22;54685;52.082;5.426;2023-04-06T12:54:48;8.70;99.90
67890;DHT22;54685;52.082;5.426;2023-04-06T12:57:17;8.80;99.90
67890;DHT22;54685;52.082;5.426;2023-04-06T12:59:44;8.80;99.90
67890;DHT22;54685;52.082;5.426;2023-04-06T13:02:11;8.80;99.90
67890;DHT22;54685;52.082;5.426;2023-04-06T13:04:38;8.90;99.90
67890;DHT22;54685;52.082;5.426;2023-04-06T13:07:05;8.90;99.90
67890;DHT22;54685;52.082;5.426;2023-04-06T13:09:32;8.80;99.90
67890;DHT22;54685;52.082;5.426;2023-04-06T13:11:59;8.70;99.90
67890;DHT22;54685;52.082;5.426;2023-04-06T13:14:26;8.70;99.90
67890;DHT22;54685;52.082;5.426;2023-04-06T13:16:53;8.60;99.90
67890;DHT22;54685;52.082;5.426;2023-04-06T13:19:20;8.60;99.90
67890;DHT22;54685;52.082;5.426;2023-04-06T13:21:48;8.50;99.90
67890;DHT22;54685;52.082;5.426;2023-04-06T13:24:15;8.50;99.90
67890;DHT22;54685;52.082;5.426;2023-04-06T13:26:43;8.50;99.90
67890;DHT22;54685;52.082;5.426;2023-04-06T13:29:10;8.60;99.90
67890;DHT22;54685;52.082;5.426;2023-04-06T13:31:37;8.60;99.90
67890;DHT22;54685;52.082;5.426;2023-04-06T13:34:05;8.50;99.90
67890;DHT22;54685;52.082;5.426;2023-04-06T13:36:32;8.50;99.90
67890;DHT22;54685;52.082;5.426;2023-04-06T13:38:59;8.50;99.90
67890;DHT22;54685;52.082;5.426;2023-04-06T13:41:25;8.50;99.90
67890;DHT22;54685;52.082;5.426;2023-04-06T13:43:53;8.40;99.90
67890;DHT22;54685;52.082;5.426;2023-04-06T13:46:20;8.40;99.90
67890;DHT22;54685;52.082;5.426;2023-04-06T13:48:47;8.40;99.90
67890;DHT22;54685;52.082;5.426;2023-04-06T13:51:17;8.30;99.90
67890;DHT22;54685;52.082;5.426;2023-04-06T13:53:44;8.30;99.90
67890;DHT22;54685;52.082;5.426;2023-04-06T13:56:11;8.30;99.90
67890;DHT22;54685;52.082;5.426;2023-04-06T13:58:37;8.30;99.90
67890;DHT22;54685;52.082;5.426;2023-04-06T14:01:08;8.30;99.90
67890;DHT22;54685;52.082;5.426;2023-04-06T14:03:37;8.30;99.90
67890;DHT22;54685;52.082;5.426;2023-04-06T14:06:12;8.30;99.90
67890;DHT22;54685;52.082;5.426;2023-04-06T14:08:56;8.30;99.90
67890;DHT22;54685;52.082;5.426;2023-04-06T14:11:23;8.20;99.90
67890;DHT22;54685;52.082;5.426;2023-04-06T14:13:50;8.30;99.90
67890;DHT22;54685;52.082;5.426;2023-04-06T14:16:17;8.20;99.90
67890;DHT22;54685;52.082;5.426;2023-04-06T14:18:46;8.20;99.90
67890;DHT22;54685;52.082;5.426;2023-04-06T14:21:13;8.20;99.90
67890;DHT22;54685;52.082;5.426;2023-04-06T14:23:40;8.20;99.90
67890;DHT22;54685;52.082;5.426;2023-04-06T14:26:08;8.20;99.90
67890;DHT22;54685;52.082;5.426;2023-04-06T14:28:35;8.20;99.90
67890;DHT22;54685;52.082;5.426;2023-04-06T14:31:10;8.20;99.90
67890;DHT22;54685;52.082;5.426;2023-04-06T14:33:39;8.20;99.90
67890;DHT22;54685;52.082;5.426;2023-04-06T14:36:07;8.20;99.90
67890;DHT22;54685;52.082;5.426;2023-04-06T14:38:34;8.20;99.90
67890;DHT22;54685;52.082;5.426;2023-04-06T14:41:01;8.20;99.90
67890;DHT22;54685;52.082;5.426;2023-04-06T14:43:28;8.20;99.90
67890;DHT22;54685;52.082;5.426;2023-04-06T14:45:59;8.20;99.90
67890;DHT22;54685;52.082;5.426;2023-04-06T14:48:25;8.20;99.90
67890;DHT22;54685;52.082;5.426;2023-04-06T14:50:56;8.20;99.90
67890;DHT22;54685;52.082;5.426;2023-04-06T14:53:23;8.20;99.90
67890;DHT22;54685;52.082;5.426;2023-04-06T14:55:51;8.20;99.90
67890;DHT22;54685;52.082;5.426;2023-04-06T14:58:19;8.10;99.90
67890;DHT22;54685;52.082;5.426;2023-04-06T15:00:46;8.10;99.90
67890;DHT22;54685;52.082;5.426;2023-04-06T15:03:13;8.10;99.90
67890;DHT22;54685;52.082;5.426;2023-04-06T15:05:41;8.00;99.90
67890;DHT22;54685;52.082;5.426;2023-04-06T15:08:08;8.10;99.90
67890;DHT22;54685;52.082;5.426;2023-04-06T15:10:36;8.10;99.90
67890;DHT22;54685;52.082;5.426;2023-04-06T15:13:04;8.10;99.90
67890;DHT22;54685;52.082;5.426;2023-04-06T15:15:30;8.20;99.90
67890;DHT22;54685;52.082;5.426;2023-04-06T15:17:58;8.10;99.90
67890;DHT22;54685;52.082;5.426;2023-04-06T15:20:25;8.10;99.90
67890;DHT22;54685;52.082;5.426;2023-04-06T15:22:51;8.10;99.90
67890;DHT22;54685;52.082;5.426;2023-04-06T15:25:18;8.10;99.90
67890;DHT22;54685;52.082;5.426;2023-04-06T15:27:45;8.20;99.90
67890;DHT22;54685;52.082;5.426;2023-04-06T15:30:12;8.20;99.90
67890;DHT22;54685;52.082;5.426;2023-04-06T15:32:39;8.20;99.90
67890;DHT22;54685;52.082;5.426;2023-04-06T15:35:12;8.20;99.90
67890;DHT22;54685;52.082;5.426;2023-04-06T15:37:39;8.20;99.90
67890;DHT22;54685;52.082;5.426;2023-04-06T15:40:06;8.20;99.90
67890;DHT22;54685;52.082;5.426;2023-04-06T15:42:34;8.20;99.90
67890;DHT22;54685;52.082;5.426;2023-04-06T15:45:00;8.20;99.90
67890;DHT22;54685;52.082;5.426;2023-04-06T15:47:28;8.20;99.90
67890;DHT22;54685;52.082;5.426;2023-04-06T15:49:55;8.20;99.90
67890;DHT22;54685;52.082;5.426;2023-04-06T15:52:22;8.20;99.90
67890;DHT22;54685;52.082;5.426;2023-04-06T15:54:49;8.20;99.90
67890;DHT22;54685;52.082;5.426;2023-04-06T15:57:16;8.20;99.90
67890;DHT22;54685;52.082;5.426;2023-04-06T15:59:43;8.10;99.90
67890;DHT22;54685;52.082;5.426;2023-04-06T16:02:10;8.20;99.90
67890;DHT22;54685;52.082;5.426;2023-04-06T16:04:37;8.20;99.90
67890;DHT22;54685;52.082;5.426;2023-04-06T16:07:04;8.20;99.90
67890;DHT22;54685;52.082;5.426;2023-04-06T16:09:31;8.10;99.90
67890;DHT22;54685;52.082;5.426;2023-04-06T16:11:57;8.20;99.90
67890;DHT22;54685;52.082;5.426;2023-04-06T16:14:24;8.20;99.90
67890;DHT22;54685;52.082;5.426;2023-04-06T16:16:51;8.10;99.90
67890;DHT22;54685;52.082;5.426;2023-04-06T16:19:18;8.10;99.90
67890;DHT22;54685;52.082;5.426;2023-04-06T16:21:45;8.10;99.90
67890;DHT22;54685;52.082;5.426;2023-04-06T16:24:13;8.00;99.90
67890;DHT22;54685;52.082;5.426;2023-04-06T16:26:40;8.00;99.90